Time;durP1;ratioP1;P1;durP2;ratioP2;P2;SDS_P1;SDS_P2;PMS_P1;PMS_P2;Temp;Humidity;BMP_temperature;BMP_pressure;BME280_temperature;BME280_humidity;BME280_pressure;Samples;Min_cycle;Max_cycle;Signal;HPM_P1;HPM_P2
2023/09/18 00:02:09;;;;;;;;;;;17.20;99.90;;;;;;4968421;28;19973;-31
2023/09/18 00:04:36;;;;;;;;;;;17.20;99.90;;;;;;4954466;29;19954;-32
2023/09/18 00:07:03;;;;;;;;;;;17.20;99.90;;;;;;4969187;28;19934;-32
2023/09/18 00:09:29;;;;;;;;;;;17.20;99.90;;;;;;4968382;28;20399;-31
2023/09/18 00:11:56;;;;;;;;;;;17.10;99.90;;;;;;4968905;28;19965;-31
2023/09/18 00:14:23;;;;;;;;;;;17.10;99.90;;;;;;4967297;28;19999;-32
2023/09/18 00:16:51;;;;;;;;;;;17.10;99.90;;;;;;4969101;28;20136;-31
2023/09/18 00:19:19;;;;;;;;;;;17.10;99.90;;;;;;4968098;28;19926;-32
2023/09/18 00:21:46;;;;;;;;;;;17.10;99.90;;;;;;4968869;28;20362;-32
2023/09/18 00:24:13;;;;;;;;;;;17.00;99.90;;;;;;4967543;28;20005;-32
2023/09/18 00:26:39;;;;;;;;;;;17.00;99.90;;;;;;4953613;29;19982;-31
2023/09/18 00:29:06;;;;;;;;;;;17.00;99.90;;;;;;4969161;28;19985;-32
2023/09/18 00:31:32;;;;;;;;;;;17.00;99.90;;;;;;4952829;29;19976;-33
2023/09/18 00:33:59;;;;;;;;;;;17.00;99.90;;;;;;4968292;28;20334;-32
2023/09/18 00:36:27;;;;;;;;;;;17.00;99.90;;;;;;4953065;29;19926;-32
2023/09/18 00:38:54;;;;;;;;;;;17.00;99.90;;;;;;4954448;29;19926;-32
2023/09/18 00:41:20;;;;;;;;;;;17.00;99.90;;;;;;4953606;29;19926;-32
2023/09/18 00:43:47;;;;;;;;;;;17.00;99.90;;;;;;4953071;29;19981;-32
2023/09/18 00:46:14;;;;;;;;;;;17.10;99.90;;;;;;4952520;28;19981;-32
2023/09/18 00:48:40;;;;;;;;;;;17.10;99.90;;;;;;4971150;28;19952;-32
2023/09/18 00:51:07;;;;;;;;;;;17.10;99.90;;;;;;4952702;28;19933;-32
2023/09/18 00:53:37;;;;;;;;;;;17.10;99.90;;;;;;4970938;28;20137;-31
2023/09/18 00:56:04;;;;;;;;;;;17.10;99.90;;;;;;4972322;28;19933;-33
2023/09/18 00:58:31;;;;;;;;;;;17.20;99.90;;;;;;4970314;28;19932;-31
2023/09/18 01:00:57;;;;;;;;;;;17.10;99.90;;;;;;4972465;28;19969;-33
2023/09/18 01:03:25;;;;;;;;;;;17.20;99.90;;;;;;4955096;28;19930;-31
2023/09/18 01:05:51;;;;;;;;;;;17.10;99.90;;;;;;4971386;28;19930;-32
2023/09/18 01:08:18;;;;;;;;;;;17.20;99.90;;;;;;4971243;28;19930;-31
2023/09/18 01:10:49;;;;;;;;;;;17.20;99.90;;;;;;4972307;28;19980;-31
2023/09/18 01:13:18;;;;;;;;;;;17.20;99.90;;;;;;4967975;28;20390;-32
2023/09/18 01:15:45;;;;;;;;;;;17.30;99.90;;;;;;4972340;28;20367;-32
2023/09/18 01:18:11;;;;;;;;;;;17.30;99.90;;;;;;4971468;28;19926;-32
2023/09/18 01:20:38;;;;;;;;;;;17.30;99.90;;;;;;4970596;28;19926;-32
2023/09/18 01:23:06;;;;;;;;;;;17.30;99.90;;;;;;4970715;28;19926;-32
2023/09/18 01:25:33;;;;;;;;;;;17.20;99.90;;;;;;4973714;28;19992;-33
2023/09/18 01:27:59;;;;;;;;;;;17.20;99.90;;;;;;4975642;28;20020;-33
2023/09/18 01:30:26;;;;;;;;;;;17.20;99.90;;;;;;4974902;28;19993;-32
2023/09/18 01:32:53;;;;;;;;;;;17.30;99.90;;;;;;4974405;28;19970;-33
2023/09/18 01:35:20;;;;;;;;;;;17.30;99.90;;;;;;4973903;28;19930;-32
2023/09/18 01:37:46;;;;;;;;;;;17.20;99.90;;;;;;4973541;28;20029;-32
2023/09/18 01:40:14;;;;;;;;;;;17.30;99.90;;;;;;4975237;28;19973;-32
2023/09/18 01:42:41;;;;;;;;;;;17.20;99.90;;;;;;4973783;28;19937;-32
2023/09/18 01:45:08;;;;;;;;;;;17.30;99.90;;;;;;4975341;28;20013;-32
2023/09/18 01:47:35;;;;;;;;;;;17.30;99.90;;;;;;4973772;28;19976;-32
2023/09/18 01:50:04;;;;;;;;;;;17.30;99.90;;;;;;4974639;28;19932;-32
2023/09/18 01:52:31;;;;;;;;;;;17.30;99.90;;;;;;4972670;28;19933;-32
2023/09/18 01:54:58;;;;;;;;;;;17.30;99.90;;;;;;4973842;28;19982;-32
2023/09/18 01:57:26;;;;;;;;;;;17.30;99.90;;;;;;4974264;28;19934;-32
2023/09/18 01:59:53;;;;;;;;;;;17.30;99.90;;;;;;4974324;28;19969;-33
2023/09/18 02:02:19;;;;;;;;;;;17.30;99.90;;;;;;4959935;28;19930;-32
2023/09/18 02:04:46;;;;;;;;;;;17.30;99.90;;;;;;4974408;28;19984;-32
2023/09/18 02:07:13;;;;;;;;;;;17.40;99.90;;;;;;4974016;28;20418;-32
2023/09/18 02:09:40;;;;;;;;;;;17.40;99.90;;;;;;4974147;28;19928;-32
2023/09/18 02:12:07;;;;;;;;;;;17.40;99.90;;;;;;4975856;28;19930;-33
2023/09/18 02:14:35;;;;;;;;;;;17.40;99.90;;;;;;4973664;28;19934;-32
2023/09/18 02:17:02;;;;;;;;;;;17.40;99.90;;;;;;4975414;28;19974;-33
2023/09/18 02:19:29;;;;;;;;;;;17.50;99.90;;;;;;4974065;28;19926;-32
2023/09/18 02:21:56;;;;;;;;;;;17.50;99.90;;;;;;4975074;28;20338;-32
2023/09/18 02:24:23;;;;;;;;;;;17.50;99.90;;;;;;4972124;28;19934;-32
2023/09/18 02:26:50;;;;;;;;;;;17.50;99.90;;;;;;4974820;28;19930;-32
2023/09/18 02:29:16;;;;;;;;;;;17.50;99.90;;;;;;4973653;28;19934;-32
2023/09/18 02:31:44;;;;;;;;;;;17.50;99.90;;;;;;4974960;28;19930;-33
2023/09/18 02:34:11;;;;;;;;;;;17.50;99.90;;;;;;4972542;28;19926;-31
2023/09/18 02:36:38;;;;;;;;;;;17.60;99.90;;;;;;4972694;28;19935;-31
2023/09/18 02:39:04;;;;;;;;;;;17.60;99.90;;;;;;4974704;28;19930;-31
2023/09/18 02:41:31;;;;;;;;;;;17.60;99.90;;;;;;4975402;28;19930;-31
2023/09/18 02:43:58;;;;;;;;;;;17.60;99.90;;;;;;4972457;28;19973;-31
2023/09/18 02:46:24;;;;;;;;;;;17.60;99.90;;;;;;4974589;28;19926;-31
2023/09/18 02:48:52;;;;;;;;;;;17.60;99.90;;;;;;4973820;28;19934;-32
2023/09/18 02:51:19;;;;;;;;;;;17.60;99.90;;;;;;4964317;28;19986;-32
2023/09/18 02:53:46;;;;;;;;;;;17.60;99.90;;;;;;4961492;28;19973;-31
2023/09/18 02:56:12;;;;;;;;;;;17.60;99.90;;;;;;4958238;28;19978;-33
2023/09/18 02:58:39;;;;;;;;;;;17.60;99.90;;;;;;4972806;28;19981;-33
2023/09/18 03:01:07;;;;;;;;;;;17.60;99.90;;;;;;4971528;28;20294;-32
2023/09/18 03:03:34;;;;;;;;;;;17.60;99.90;;;;;;4973405;28;19930;-32
2023/09/18 03:06:06;;;;;;;;;;;17.60;99.90;;;;;;4974536;28;19930;-31
2023/09/18 03:08:32;;;;;;;;;;;17.60;99.90;;;;;;4973152;28;19933;-32
2023/09/18 03:10:59;;;;;;;;;;;17.60;99.90;;;;;;4970270;28;19930;-32
2023/09/18 03:13:27;;;;;;;;;;;17.60;99.90;;;;;;4973319;28;19930;-32
2023/09/18 03:15:53;;;;;;;;;;;17.60;99.90;;;;;;4974036;28;19926;-32
2023/09/18 03:18:20;;;;;;;;;;;17.70;99.90;;;;;;4972294;28;19937;-32
2023/09/18 03:20:48;;;;;;;;;;;17.70;99.90;;;;;;4971705;28;19930;-32
2023/09/18 03:23:16;;;;;;;;;;;17.70;99.90;;;;;;4973272;28;20295;-32
2023/09/18 03:25:42;;;;;;;;;;;17.70;99.90;;;;;;4973003;28;19926;-32
2023/09/18 03:28:09;;;;;;;;;;;17.80;99.90;;;;;;4973021;28;19927;-36
2023/09/18 03:30:36;;;;;;;;;;;17.80;99.90;;;;;;4970728;28;19926;-33
2023/09/18 03:33:03;;;;;;;;;;;17.80;99.90;;;;;;4969475;28;19930;-32
2023/09/18 03:35:32;;;;;;;;;;;17.90;99.90;;;;;;4967384;28;20354;-33
2023/09/18 03:37:58;;;;;;;;;;;17.90;99.90;;;;;;4947126;28;19926;-32
2023/09/18 03:40:26;;;;;;;;;;;17.90;99.90;;;;;;4966590;28;19930;-32
2023/09/18 03:42:53;;;;;;;;;;;17.90;99.90;;;;;;4956191;28;19926;-33
2023/09/18 03:45:20;;;;;;;;;;;18.00;99.90;;;;;;4970988;28;19934;-32
2023/09/18 03:47:47;;;;;;;;;;;18.00;99.90;;;;;;4973837;28;19934;-33
2023/09/18 03:50:14;;;;;;;;;;;18.00;99.90;;;;;;4971144;28;19933;-32
2023/09/18 03:52:40;;;;;;;;;;;18.00;99.90;;;;;;4965302;28;19926;-32
2023/09/18 03:55:07;;;;;;;;;;;18.00;99.90;;;;;;4972193;28;19934;-32
2023/09/18 03:57:36;;;;;;;;;;;18.00;99.90;;;;;;4971214;28;20374;-32
2023/09/18 04:00:03;;;;;;;;;;;18.00;99.90;;;;;;4972494;28;20359;-32
2023/09/18 04:02:30;;;;;;;;;;;18.00;99.90;;;;;;4969480;28;19929;-32
2023/09/18 04:04:57;;;;;;;;;;;18.10;99.90;;;;;;4955918;28;19934;-32
2023/09/18 04:07:23;;;;;;;;;;;18.00;99.90;;;;;;4971628;28;19926;-32
2023/09/18 04:09:50;;;;;;;;;;;18.10;99.90;;;;;;4970934;28;19934;-35
2023/09/18 04:12:17;;;;;;;;;;;18.10;99.90;;;;;;4973818;28;19981;-31
2023/09/18 04:14:45;;;;;;;;;;;18.10;99.90;;;;;;4972208;28;20445;-32
2023/09/18 04:17:12;;;;;;;;;;;18.10;99.90;;;;;;4971789;28;19969;-31
2023/09/18 04:19:38;;;;;;;;;;;18.10;99.90;;;;;;4971035;28;19964;-32
2023/09/18 04:22:05;;;;;;;;;;;18.10;99.90;;;;;;4972932;28;19929;-32
2023/09/18 04:24:32;;;;;;;;;;;18.10;99.90;;;;;;4972788;28;19977;-32
2023/09/18 04:26:58;;;;;;;;;;;18.10;99.90;;;;;;4971262;28;19930;-32
2023/09/18 04:29:25;;;;;;;;;;;18.20;99.90;;;;;;4970698;28;19933;-31
2023/09/18 04:31:54;;;;;;;;;;;18.20;99.90;;;;;;4971575;28;19930;-32
2023/09/18 04:34:20;;;;;;;;;;;18.20;99.90;;;;;;4972100;28;19926;-32
2023/09/18 04:36:47;;;;;;;;;;;18.20;99.90;;;;;;4973173;28;20375;-32
2023/09/18 04:39:14;;;;;;;;;;;18.20;99.90;;;;;;4955981;28;20383;-32
2023/09/18 04:41:41;;;;;;;;;;;18.20;99.90;;;;;;4972146;28;20399;-32
2023/09/18 04:44:08;;;;;;;;;;;18.30;99.90;;;;;;4971844;28;20337;-34
2023/09/18 04:46:34;;;;;;;;;;;18.20;99.90;;;;;;4972235;28;20313;-31
2023/09/18 04:49:03;;;;;;;;;;;18.30;99.90;;;;;;4971177;28;19926;-31
2023/09/18 04:51:32;;;;;;;;;;;18.30;99.90;;;;;;4954959;28;19977;-33
2023/09/18 04:53:59;;;;;;;;;;;18.30;99.90;;;;;;4984205;28;19925;-33
2023/09/18 04:56:26;;;;;;;;;;;18.30;99.90;;;;;;4977196;28;20000;-33
2023/09/18 04:58:53;;;;;;;;;;;18.30;99.90;;;;;;4968399;28;19926;-32
2023/09/18 05:01:20;;;;;;;;;;;18.30;99.90;;;;;;4955660;28;19973;-32
2023/09/18 05:03:48;;;;;;;;;;;18.30;99.90;;;;;;4974256;28;19930;-31
2023/09/18 05:06:17;;;;;;;;;;;18.30;99.90;;;;;;4972711;28;20014;-32
2023/09/18 05:08:44;;;;;;;;;;;18.40;99.90;;;;;;4974178;28;19926;-32
2023/09/18 05:11:11;;;;;;;;;;;18.40;99.90;;;;;;4975945;28;20326;-32
2023/09/18 05:13:37;;;;;;;;;;;18.40;99.90;;;;;;4975025;28;19930;-32
2023/09/18 05:16:03;;;;;;;;;;;18.40;99.90;;;;;;4974766;28;19997;-33
2023/09/18 05:18:30;;;;;;;;;;;18.40;99.90;;;;;;4958538;28;19926;-33
2023/09/18 05:20:58;;;;;;;;;;;18.40;99.90;;;;;;4973169;28;19997;-32
2023/09/18 05:23:26;;;;;;;;;;;18.40;99.90;;;;;;4972357;28;19926;-33
2023/09/18 05:25:53;;;;;;;;;;;18.40;99.90;;;;;;4956280;28;19926;-33
2023/09/18 05:28:19;;;;;;;;;;;18.40;99.90;;;;;;4970646;28;19981;-32
2023/09/18 05:30:46;;;;;;;;;;;18.40;99.90;;;;;;4963479;28;19933;-32
2023/09/18 05:33:13;;;;;;;;;;;18.40;99.90;;;;;;4955707;28;19930;-31
2023/09/18 05:35:40;;;;;;;;;;;18.50;99.90;;;;;;4969618;28;19926;-32
2023/09/18 05:38:08;;;;;;;;;;;18.40;99.90;;;;;;4971762;28;19974;-33
2023/09/18 05:40:36;;;;;;;;;;;18.50;99.90;;;;;;4971172;28;19926;-32
2023/09/18 05:43:03;;;;;;;;;;;18.50;99.90;;;;;;4975080;28;20279;-32
2023/09/18 05:45:31;;;;;;;;;;;18.50;99.90;;;;;;4975305;28;19926;-32
2023/09/18 05:48:03;;;;;;;;;;;18.40;99.90;;;;;;4974333;28;20367;-32
2023/09/18 05:50:31;;;;;;;;;;;18.40;99.90;;;;;;4971862;28;19934;-32
2023/09/18 05:52:59;;;;;;;;;;;18.50;99.90;;;;;;4970462;28;20393;-31
2023/09/18 05:55:26;;;;;;;;;;;18.50;99.90;;;;;;4961515;28;20030;-31
2023/09/18 05:57:54;;;;;;;;;;;18.50;99.90;;;;;;4970906;28;20382;-32
2023/09/18 06:00:21;;;;;;;;;;;18.40;99.90;;;;;;4968672;28;20346;-32
2023/09/18 06:02:48;;;;;;;;;;;18.50;99.90;;;;;;4964175;28;19973;-33
2023/09/18 06:05:17;;;;;;;;;;;18.50;99.90;;;;;;4963990;28;19978;-32
2023/09/18 06:07:44;;;;;;;;;;;18.50;99.90;;;;;;4962710;28;20037;-32
2023/09/18 06:10:10;;;;;;;;;;;18.50;99.90;;;;;;4971566;28;19941;-33
2023/09/18 06:12:38;;;;;;;;;;;18.50;99.90;;;;;;4974349;28;19969;-32
2023/09/18 06:15:09;;;;;;;;;;;18.50;99.90;;;;;;4975053;28;20798;-32
2023/09/18 06:17:36;;;;;;;;;;;18.50;99.90;;;;;;4975224;28;20473;-31
2023/09/18 06:20:04;;;;;;;;;;;18.50;99.90;;;;;;4974048;28;19995;-34
2023/09/18 06:22:31;;;;;;;;;;;18.60;99.90;;;;;;4974084;28;19970;-32
2023/09/18 06:24:57;;;;;;;;;;;18.60;99.90;;;;;;4972648;28;19932;-32
2023/09/18 06:27:24;;;;;;;;;;;18.60;99.90;;;;;;4957785;28;19930;-32
2023/09/18 06:29:51;;;;;;;;;;;18.60;99.90;;;;;;4963479;28;19930;-32
2023/09/18 06:32:19;;;;;;;;;;;18.70;99.90;;;;;;4973208;28;19973;-32
2023/09/18 06:34:47;;;;;;;;;;;18.70;99.90;;;;;;4972841;28;20349;-31
2023/09/18 06:37:14;;;;;;;;;;;18.70;99.90;;;;;;4973701;28;19926;-31
2023/09/18 06:39:40;;;;;;;;;;;18.80;99.90;;;;;;4963534;28;19954;-32
2023/09/18 06:42:07;;;;;;;;;;;18.70;99.90;;;;;;4969843;28;19933;-32
2023/09/18 06:44:34;;;;;;;;;;;18.80;99.90;;;;;;4968502;28;19981;-32
2023/09/18 06:47:00;;;;;;;;;;;18.80;99.90;;;;;;4960996;28;19930;-32
2023/09/18 06:49:30;;;;;;;;;;;18.80;99.90;;;;;;4965945;28;20033;-34
2023/09/18 06:51:57;;;;;;;;;;;18.80;99.90;;;;;;4971423;28;19926;-32
2023/09/18 06:54:23;;;;;;;;;;;18.80;99.90;;;;;;4970040;28;20596;-32
2023/09/18 06:56:50;;;;;;;;;;;18.80;99.90;;;;;;4968322;28;19997;-36
2023/09/18 06:59:17;;;;;;;;;;;18.80;99.90;;;;;;4963729;28;20358;-34
2023/09/18 07:01:43;;;;;;;;;;;18.80;99.90;;;;;;4973808;28;19938;-33
2023/09/18 07:04:10;;;;;;;;;;;18.70;99.90;;;;;;4963229;28;19934;-35
2023/09/18 07:06:38;;;;;;;;;;;18.70;99.90;;;;;;4956130;28;19926;-33
2023/09/18 07:09:06;;;;;;;;;;;18.70;99.90;;;;;;4973094;28;19926;-33
2023/09/18 07:11:33;;;;;;;;;;;18.60;99.90;;;;;;4970605;28;19932;-35
2023/09/18 07:14:01;;;;;;;;;;;18.60;99.90;;;;;;4973778;28;19926;-32
2023/09/18 07:16:27;;;;;;;;;;;18.60;99.90;;;;;;4974706;28;19926;-32
2023/09/18 07:18:54;;;;;;;;;;;18.60;99.90;;;;;;4975283;28;19930;-32
2023/09/18 07:21:21;;;;;;;;;;;18.70;99.90;;;;;;4973307;28;19938;-31
2023/09/18 07:23:49;;;;;;;;;;;18.60;99.90;;;;;;4973767;28;19993;-33
2023/09/18 07:26:15;;;;;;;;;;;18.60;99.90;;;;;;4973744;28;19952;-33
2023/09/18 07:28:44;;;;;;;;;;;18.60;99.90;;;;;;4974059;28;19930;-33
2023/09/18 07:31:14;;;;;;;;;;;18.60;99.90;;;;;;4973663;28;19934;-33
2023/09/18 07:33:40;;;;;;;;;;;18.60;99.90;;;;;;4958006;28;20025;-32
2023/09/18 07:36:07;;;;;;;;;;;18.70;99.90;;;;;;4973828;28;19957;-33
2023/09/18 07:38:34;;;;;;;;;;;18.70;99.90;;;;;;4974820;28;19933;-35
2023/09/18 07:41:02;;;;;;;;;;;18.70;99.90;;;;;;4974799;28;19930;-32
2023/09/18 07:43:28;;;;;;;;;;;18.70;99.90;;;;;;4957235;28;19933;-33
2023/09/18 07:45:56;;;;;;;;;;;18.70;99.90;;;;;;4973388;28;19926;-33
2023/09/18 07:48:23;;;;;;;;;;;18.80;99.90;;;;;;4953773;29;19938;-32
2023/09/18 07:50:50;;;;;;;;;;;18.80;99.90;;;;;;4955424;29;20272;-32
2023/09/18 07:53:17;;;;;;;;;;;18.80;99.90;;;;;;4955165;29;19934;-32
2023/09/18 07:55:43;;;;;;;;;;;18.80;99.90;;;;;;4955223;29;20017;-33
2023/09/18 07:58:11;;;;;;;;;;;18.80;99.90;;;;;;4954070;29;19926;-34
2023/09/18 08:00:39;;;;;;;;;;;18.90;99.90;;;;;;4953923;29;19926;-31
2023/09/18 08:03:05;;;;;;;;;;;18.90;99.90;;;;;;4954075;29;19926;-32
2023/09/18 08:05:32;;;;;;;;;;;18.90;99.90;;;;;;4953770;29;19926;-32
2023/09/18 08:07:59;;;;;;;;;;;18.90;99.90;;;;;;4955034;29;20347;-33
2023/09/18 08:10:25;;;;;;;;;;;18.90;99.90;;;;;;4953849;29;19933;-31
2023/09/18 08:12:53;;;;;;;;;;;18.90;99.90;;;;;;4953781;29;19973;-31
2023/09/18 08:15:21;;;;;;;;;;;18.90;99.90;;;;;;4954516;29;19931;-32
2023/09/18 08:17:48;;;;;;;;;;;18.90;99.90;;;;;;4955026;29;19930;-31
2023/09/18 08:20:15;;;;;;;;;;;18.90;99.90;;;;;;4953482;29;20387;-31
2023/09/18 08:22:43;;;;;;;;;;;19.00;99.90;;;;;;4953470;29;20449;-31
2023/09/18 08:25:10;;;;;;;;;;;19.00;99.90;;;;;;4953486;29;19927;-31
2023/09/18 08:27:37;;;;;;;;;;;19.00;99.90;;;;;;4953294;29;19926;-31
2023/09/18 08:30:04;;;;;;;;;;;19.00;99.90;;;;;;4953608;29;20382;-31
2023/09/18 08:32:33;;;;;;;;;;;19.10;99.90;;;;;;4954634;29;19950;-31
2023/09/18 08:35:01;;;;;;;;;;;19.00;99.90;;;;;;4952977;28;20318;-31
2023/09/18 08:37:27;;;;;;;;;;;19.10;99.90;;;;;;4954580;29;19926;-32
2023/09/18 08:39:54;;;;;;;;;;;19.10;99.90;;;;;;4953543;29;19926;-31
2023/09/18 08:42:21;;;;;;;;;;;19.10;99.90;;;;;;4953567;29;19994;-31
2023/09/18 08:44:48;;;;;;;;;;;19.10;99.90;;;;;;4954649;29;19930;-31
2023/09/18 08:47:15;;;;;;;;;;;19.10;99.90;;;;;;4952958;29;19927;-31
2023/09/18 08:49:43;;;;;;;;;;;19.20;99.90;;;;;;4953642;29;19930;-32
2023/09/18 08:52:10;;;;;;;;;;;19.20;99.90;;;;;;4954260;29;20025;-31
2023/09/18 08:54:36;;;;;;;;;;;19.30;99.90;;;;;;4953370;29;19977;-31
2023/09/18 08:57:07;;;;;;;;;;;19.30;99.90;;;;;;4953244;29;19958;-31
2023/09/18 08:59:34;;;;;;;;;;;19.30;99.90;;;;;;4954659;29;20279;-31
2023/09/18 09:02:01;;;;;;;;;;;19.30;99.90;;;;;;4954441;29;19943;-32
2023/09/18 09:04:28;;;;;;;;;;;19.40;99.90;;;;;;4953168;29;19931;-31
2023/09/18 09:06:59;;;;;;;;;;;19.40;99.90;;;;;;4954358;29;19927;-31
2023/09/18 09:09:26;;;;;;;;;;;19.30;99.90;;;;;;4952893;29;19926;-31
2023/09/18 09:11:52;;;;;;;;;;;19.40;99.90;;;;;;4954024;29;19927;-31
2023/09/18 09:14:21;;;;;;;;;;;19.40;99.90;;;;;;4953198;29;19962;-31
2023/09/18 09:16:48;;;;;;;;;;;19.40;99.90;;;;;;4954384;28;19949;-31
2023/09/18 09:19:16;;;;;;;;;;;19.40;99.90;;;;;;4953238;29;19932;-32
2023/09/18 09:21:44;;;;;;;;;;;19.50;99.90;;;;;;4969110;28;19986;-33
2023/09/18 09:24:13;;;;;;;;;;;19.50;99.90;;;;;;4953082;29;19926;-33
2023/09/18 09:26:40;;;;;;;;;;;19.50;99.90;;;;;;4952642;29;20409;-32
2023/09/18 09:29:17;;;;;;;;;;;19.60;99.90;;;;;;4953264;29;19982;-31
2023/09/18 09:31:44;;;;;;;;;;;19.60;99.90;;;;;;4954218;29;19930;-32
2023/09/18 09:34:11;;;;;;;;;;;19.70;99.90;;;;;;4953075;29;19978;-32
2023/09/18 09:36:37;;;;;;;;;;;19.80;99.90;;;;;;4952997;29;19967;-33
2023/09/18 09:39:05;;;;;;;;;;;19.80;99.90;;;;;;4953124;29;20073;-32
2023/09/18 09:41:33;;;;;;;;;;;19.90;99.90;;;;;;4952926;29;19997;-33
2023/09/18 09:44:00;;;;;;;;;;;19.90;99.90;;;;;;4954091;29;19997;-32
2023/09/18 09:46:27;;;;;;;;;;;20.00;99.90;;;;;;4957051;28;19927;-30
2023/09/18 09:49:03;;;;;;;;;;;20.00;99.90;;;;;;4959706;28;19932;-30
2023/09/18 09:51:30;;;;;;;;;;;20.10;99.90;;;;;;4976756;28;20384;-33
2023/09/18 09:53:58;;;;;;;;;;;20.10;99.90;;;;;;4959312;28;19930;-32
2023/09/18 09:56:40;;;;;;;;;;;20.20;99.90;;;;;;4959756;28;19972;-33
2023/09/18 09:59:08;;;;;;;;;;;20.20;99.90;;;;;;4959309;28;20374;-31
2023/09/18 10:01:35;;;;;;;;;;;20.30;99.90;;;;;;4976530;28;20401;-32
2023/09/18 10:04:02;;;;;;;;;;;20.40;99.90;;;;;;4959481;28;19973;-32
2023/09/18 10:06:30;;;;;;;;;;;20.50;99.90;;;;;;4959126;28;19926;-33
2023/09/18 10:08:56;;;;;;;;;;;20.60;99.90;;;;;;4959476;28;19926;-32
2023/09/18 10:11:23;;;;;;;;;;;20.70;99.90;;;;;;4959217;28;19937;-33
2023/09/18 10:13:51;;;;;;;;;;;20.70;99.90;;;;;;4959253;28;19926;-34
2023/09/18 10:16:20;;;;;;;;;;;20.70;99.90;;;;;;4959532;28;20367;-32
2023/09/18 10:18:52;;;;;;;;;;;20.70;99.90;;;;;;4976355;28;19933;-32
2023/09/18 10:21:20;;;;;;;;;;;20.80;99.90;;;;;;4958895;28;19932;-32
2023/09/18 10:23:54;;;;;;;;;;;20.70;99.90;;;;;;4958978;28;20016;-33
2023/09/18 10:26:24;;;;;;;;;;;20.80;99.90;;;;;;4958838;28;19926;-31
2023/09/18 10:28:52;;;;;;;;;;;20.90;99.90;;;;;;4976092;28;19926;-31
2023/09/18 10:31:21;;;;;;;;;;;20.90;99.90;;;;;;4975986;28;19973;-32
2023/09/18 10:33:48;;;;;;;;;;;21.00;99.90;;;;;;4975873;28;20385;-32
2023/09/18 10:36:17;;;;;;;;;;;21.20;99.90;;;;;;4958685;28;19932;-32
2023/09/18 10:38:44;;;;;;;;;;;21.30;99.90;;;;;;4958699;28;19926;-32
2023/09/18 10:41:11;;;;;;;;;;;21.40;99.90;;;;;;4958863;28;19926;-32
2023/09/18 10:43:38;;;;;;;;;;;21.60;99.90;;;;;;4975775;28;20310;-32
2023/09/18 10:46:04;;;;;;;;;;;21.80;99.90;;;;;;4958663;28;19926;-32
2023/09/18 10:48:32;;;;;;;;;;;21.80;99.90;;;;;;4975450;28;19930;-34
2023/09/18 10:51:05;;;;;;;;;;;21.80;99.90;;;;;;4958991;28;20290;-32
2023/09/18 10:53:32;;;;;;;;;;;21.80;99.90;;;;;;4975634;28;20022;-32
2023/09/18 10:55:59;;;;;;;;;;;21.80;99.90;;;;;;4975774;28;19926;-32
2023/09/18 10:58:26;;;;;;;;;;;21.70;99.90;;;;;;4974568;28;19988;-32
2023/09/18 11:00:53;;;;;;;;;;;21.60;99.90;;;;;;4958425;28;20358;-32
2023/09/18 11:03:22;;;;;;;;;;;21.60;99.90;;;;;;4975179;28;19981;-32
2023/09/18 11:06:02;;;;;;;;;;;21.50;99.90;;;;;;4958125;28;19926;-32
2023/09/18 11:08:29;;;;;;;;;;;21.50;99.90;;;;;;4957360;28;20166;-32
2023/09/18 11:10:57;;;;;;;;;;;21.50;99.90;;;;;;4974812;28;19930;-33
2023/09/18 11:13:31;;;;;;;;;;;21.50;99.90;;;;;;4971647;28;20397;-33
2023/09/18 11:16:03;;;;;;;;;;;21.50;99.90;;;;;;4974033;28;19984;-33
2023/09/18 11:18:35;;;;;;;;;;;21.50;99.90;;;;;;4972146;28;20370;-32
2023/09/18 11:21:10;;;;;;;;;;;21.60;99.90;;;;;;4970248;28;20593;-33
2023/09/18 11:23:37;;;;;;;;;;;21.70;99.90;;;;;;4972376;28;19933;-32
2023/09/18 11:26:05;;;;;;;;;;;21.70;99.90;;;;;;4972467;28;19929;-33
2023/09/18 11:28:32;;;;;;;;;;;21.80;99.90;;;;;;4974732;28;20372;-33
2023/09/18 11:31:00;;;;;;;;;;;21.80;99.90;;;;;;4975154;28;19926;-33
2023/09/18 11:33:33;;;;;;;;;;;21.90;99.90;;;;;;4973830;28;19926;-33
2023/09/18 11:36:03;;;;;;;;;;;21.90;99.90;;;;;;4972985;28;19981;-32
2023/09/18 11:38:33;;;;;;;;;;;22.10;99.90;;;;;;4976366;28;19965;-33
2023/09/18 11:41:01;;;;;;;;;;;22.20;99.90;;;;;;4957491;28;19926;-32
2023/09/18 11:43:29;;;;;;;;;;;22.20;99.90;;;;;;4972731;28;19933;-34
2023/09/18 11:45:56;;;;;;;;;;;22.10;99.90;;;;;;4957677;28;19927;-33
2023/09/18 11:48:27;;;;;;;;;;;22.10;99.90;;;;;;4973082;28;19934;-33
2023/09/18 11:50:54;;;;;;;;;;;22.00;99.90;;;;;;4973696;28;19926;-33
2023/09/18 11:53:21;;;;;;;;;;;21.90;99.90;;;;;;4974385;28;19981;-33
2023/09/18 11:55:49;;;;;;;;;;;21.80;99.90;;;;;;4974778;28;20374;-32
2023/09/18 11:58:16;;;;;;;;;;;21.80;99.90;;;;;;4972239;28;19977;-32
2023/09/18 12:00:48;;;;;;;;;;;21.70;99.90;;;;;;4973494;28;19936;-32
2023/09/18 12:03:17;;;;;;;;;;;21.70;99.90;;;;;;4973345;28;20453;-33
2023/09/18 12:05:44;;;;;;;;;;;21.70;99.90;;;;;;4973308;28;19964;-33
2023/09/18 12:08:11;;;;;;;;;;;21.80;99.90;;;;;;4972867;28;19982;-33
2023/09/18 12:10:38;;;;;;;;;;;21.90;99.90;;;;;;4974325;28;19984;-33
2023/09/18 12:13:08;;;;;;;;;;;22.10;99.90;;;;;;4972386;28;20800;-33
2023/09/18 12:15:35;;;;;;;;;;;22.40;99.90;;;;;;4954979;29;20301;-32
2023/09/18 12:18:07;;;;;;;;;;;22.60;99.90;;;;;;4955007;29;20013;-32
2023/09/18 12:20:36;;;;;;;;;;;22.70;99.90;;;;;;4956149;28;19934;-33
2023/09/18 12:23:03;;;;;;;;;;;22.70;99.90;;;;;;4970008;28;19926;-32
2023/09/18 12:25:29;;;;;;;;;;;22.80;99.90;;;;;;4974361;28;20369;-32
2023/09/18 12:27:57;;;;;;;;;;;22.90;99.90;;;;;;4974149;28;20326;-32
2023/09/18 12:30:25;;;;;;;;;;;23.00;99.90;;;;;;4973279;28;19930;-33
2023/09/18 12:32:52;;;;;;;;;;;23.20;99.90;;;;;;4972781;28;19973;-32
2023/09/18 12:35:18;;;;;;;;;;;23.30;99.90;;;;;;4972306;28;19964;-33
2023/09/18 12:37:45;;;;;;;;;;;23.30;99.90;;;;;;4973535;28;20305;-32
2023/09/18 12:40:21;;;;;;;;;;;23.40;99.90;;;;;;4973000;28;19969;-33
2023/09/18 12:42:48;;;;;;;;;;;23.40;99.90;;;;;;4969580;28;19926;-32
2023/09/18 12:45:15;;;;;;;;;;;23.50;99.90;;;;;;4960430;28;20383;-34
2023/09/18 12:47:43;;;;;;;;;;;23.40;99.90;;;;;;4971023;28;19981;-33
2023/09/18 12:50:11;;;;;;;;;;;23.30;99.90;;;;;;4972466;28;19926;-31
2023/09/18 12:52:37;;;;;;;;;;;23.40;99.90;;;;;;4942542;29;20298;-32
2023/09/18 12:55:06;;;;;;;;;;;23.60;99.90;;;;;;4937564;29;19962;-33
2023/09/18 12:57:33;;;;;;;;;;;23.70;99.90;;;;;;4954435;29;19966;-34
2023/09/18 13:00:02;;;;;;;;;;;23.70;99.90;;;;;;4954314;29;19930;-34
2023/09/18 13:02:29;;;;;;;;;;;23.70;99.90;;;;;;4937358;29;19927;-34
2023/09/18 13:04:58;;;;;;;;;;;23.60;99.90;;;;;;4954176;29;19926;-33
2023/09/18 13:07:27;;;;;;;;;;;23.50;99.90;;;;;;4955156;28;20054;-32
2023/09/18 13:09:59;;;;;;;;;;;23.50;99.90;;;;;;4973376;28;20390;-35
2023/09/18 13:12:26;;;;;;;;;;;23.50;99.90;;;;;;4972509;28;20289;-33
2023/09/18 13:15:00;;;;;;;;;;;23.50;99.90;;;;;;4973299;28;20438;-33
2023/09/18 13:17:26;;;;;;;;;;;23.50;99.90;;;;;;4970784;28;20346;-33
2023/09/18 13:19:53;;;;;;;;;;;23.40;99.90;;;;;;4969975;28;19934;-33
2023/09/18 13:22:25;;;;;;;;;;;23.60;99.90;;;;;;4976365;28;19934;-34
2023/09/18 13:24:56;;;;;;;;;;;23.70;99.90;;;;;;4976625;28;19926;-34
2023/09/18 13:27:23;;;;;;;;;;;23.70;99.90;;;;;;4959235;28;20107;-33
2023/09/18 13:29:49;;;;;;;;;;;23.60;99.90;;;;;;4977023;28;19997;-33
2023/09/18 13:32:16;;;;;;;;;;;23.50;99.90;;;;;;4976059;28;19981;-33
2023/09/18 13:34:44;;;;;;;;;;;23.40;99.90;;;;;;4960000;28;19978;-34
2023/09/18 13:37:10;;;;;;;;;;;23.40;99.90;;;;;;4975826;28;19933;-33
2023/09/18 13:39:39;;;;;;;;;;;23.40;99.90;;;;;;4959130;28;19930;-32
2023/09/18 13:42:06;;;;;;;;;;;23.30;99.90;;;;;;4974759;28;19980;-34
2023/09/18 13:44:33;;;;;;;;;;;23.30;99.90;;;;;;4976016;28;19963;-33
2023/09/18 13:46:59;;;;;;;;;;;23.20;99.90;;;;;;4975334;28;19926;-33
2023/09/18 13:49:26;;;;;;;;;;;23.20;99.90;;;;;;4973723;28;19961;-32
2023/09/18 13:51:54;;;;;;;;;;;23.20;99.90;;;;;;4973530;28;19956;-33
2023/09/18 13:54:21;;;;;;;;;;;23.30;99.90;;;;;;4976332;28;20371;-33
2023/09/18 13:56:49;;;;;;;;;;;23.30;99.90;;;;;;4975867;28;20449;-34
2023/09/18 13:59:15;;;;;;;;;;;23.40;99.90;;;;;;4968439;28;19930;-34
2023/09/18 14:01:42;;;;;;;;;;;23.30;99.90;;;;;;4967138;28;20353;-34
2023/09/18 14:04:08;;;;;;;;;;;23.20;99.90;;;;;;4967167;28;20353;-34
2023/09/18 14:06:35;;;;;;;;;;;23.20;99.90;;;;;;4955776;28;19961;-34
2023/09/18 14:09:05;;;;;;;;;;;23.30;99.90;;;;;;4974496;28;19927;-32
2023/09/18 14:11:32;;;;;;;;;;;23.50;99.90;;;;;;4973676;28;20461;-34
2023/09/18 14:14:00;;;;;;;;;;;23.60;99.90;;;;;;4976170;28;19926;-33
2023/09/18 14:16:27;;;;;;;;;;;23.70;99.90;;;;;;4975358;28;19976;-33
2023/09/18 14:18:54;;;;;;;;;;;23.80;99.90;;;;;;4976386;28;19977;-37